createdAt,value
2022-11-28T00:01:27.994Z,94172.00
2022-11-28T00:03:54.860Z,94165.19
2022-11-28T00:06:21.961Z,94155.16
2022-11-28T00:08:48.869Z,94152.25
2022-11-28T00:11:17.305Z,94164.66
2022-11-28T00:13:45.176Z,94158.03
2022-11-28T00:16:18.498Z,94153.56
2022-11-28T00:18:45.252Z,94161.22
2022-11-28T00:21:13.695Z,94146.47
2022-11-28T00:23:41.940Z,94158.84
2022-11-28T00:26:16.055Z,94151.19
2022-11-28T00:28:43.205Z,94151.72
2022-11-28T00:31:19.667Z,94157.75
2022-11-28T00:33:47.034Z,94148.25
2022-11-28T00:36:14.470Z,94152.75
2022-11-28T00:38:42.065Z,94144.31
2022-11-28T00:41:11.474Z,94143.25
2022-11-28T00:43:38.123Z,94132.19
2022-11-28T00:46:05.009Z,94127.16
2022-11-28T00:48:33.346Z,94116.13
2022-11-28T00:51:12.072Z,94120.84
2022-11-28T00:53:43.080Z,94103.72
2022-11-28T00:56:15.688Z,94106.38
2022-11-28T00:58:42.947Z,94107.97
2022-11-28T01:01:15.522Z,94094.78
2022-11-28T01:03:43.417Z,94083.72
2022-11-28T01:06:11.721Z,94095.84
2022-11-28T01:08:38.471Z,94067.63
2022-11-28T01:11:12.644Z,94072.63
2022-11-28T01:13:40.427Z,94096.88
2022-11-28T01:16:08.126Z,94080.53
2022-11-28T01:18:35.182Z,94063.13
2022-11-28T01:21:01.824Z,94068.09
2022-11-28T01:23:28.528Z,94089.75
2022-11-28T01:25:55.316Z,94112.94
2022-11-28T01:28:22.038Z,94133.50
2022-11-28T01:30:48.670Z,94129.56
2022-11-28T01:33:15.420Z,94116.91
2022-11-28T01:35:42.037Z,94137.19
2022-11-28T01:38:08.742Z,94124.53
2022-11-28T01:40:35.493Z,94122.94
2022-11-28T01:43:02.161Z,94116.34
2022-11-28T01:45:33.525Z,94098.94
2022-11-28T01:48:03.190Z,94135.84
2022-11-28T01:50:33.115Z,94090.50
2022-11-28T01:53:04.284Z,94087.34
2022-11-28T01:55:35.546Z,94098.16
2022-11-28T01:58:02.338Z,94081.56
2022-11-28T02:00:29.076Z,94079.41
2022-11-28T02:03:10.466Z,94075.44
2022-11-28T02:05:37.366Z,94071.53
2022-11-28T02:08:04.439Z,94054.13
2022-11-28T02:10:57.045Z,94057.25
2022-11-28T02:13:31.788Z,94056.47
2022-11-28T02:16:28.392Z,94040.16
2022-11-28T02:19:13.152Z,94039.13
2022-11-28T02:21:52.952Z,94043.56
2022-11-28T02:24:57.236Z,94048.81
2022-11-28T02:28:01.617Z,94051.69
2022-11-28T02:30:48.467Z,94036.63
2022-11-28T02:33:36.134Z,94040.09
2022-11-28T02:36:11.792Z,94054.63
2022-11-28T02:38:42.444Z,94049.63
2022-11-28T02:41:43.328Z,94050.63
2022-11-28T02:44:28.809Z,94052.50
2022-11-28T02:47:01.818Z,94052.53
2022-11-28T02:49:41.178Z,94043.56
2022-11-28T02:52:19.253Z,94040.38
2022-11-28T02:54:47.405Z,94045.41
2022-11-28T02:57:14.071Z,94043.03
2022-11-28T02:59:40.677Z,94040.38
2022-11-28T03:02:25.981Z,94029.38
2022-11-28T03:05:00.456Z,94030.41
2022-11-28T03:07:33.279Z,94022.72
2022-11-28T03:10:14.602Z,94017.78
2022-11-28T03:13:10.602Z,94006.44
2022-11-28T03:15:56.406Z,94016.66
2022-11-28T03:18:27.161Z,94024.59
2022-11-28T03:21:05.775Z,94009.81
2022-11-28T03:23:38.000Z,94017.44
2022-11-28T03:26:42.267Z,94023.16
2022-11-28T03:29:35.056Z,94008.72
2022-11-28T03:32:04.131Z,94007.41
2022-11-28T03:34:35.156Z,94008.94
2022-11-28T03:37:05.461Z,94009.44
2022-11-28T03:39:37.207Z,94004.97
2022-11-28T03:42:10.798Z,94000.81
2022-11-28T03:45:00.589Z,93988.66
2022-11-28T03:47:32.693Z,93972.06
2022-11-28T03:50:06.273Z,93969.44
2022-11-28T03:52:38.504Z,93967.59
2022-11-28T03:55:47.875Z,93982.59
2022-11-28T03:58:27.411Z,93958.59
2022-11-28T04:01:04.334Z,93971.00
2022-11-28T04:03:45.600Z,93969.13
2022-11-28T04:06:22.978Z,93977.00
2022-11-28T04:09:02.534Z,93988.66
2022-11-28T04:11:54.215Z,93994.22
2022-11-28T04:14:29.599Z,93988.69
2022-11-28T04:17:19.695Z,93981.56
2022-11-28T04:20:01.208Z,93974.19
2022-11-28T04:22:32.073Z,93977.06
2022-11-28T04:25:04.644Z,93966.81
2022-11-28T04:27:37.729Z,93983.97
2022-11-28T04:30:06.596Z,93976.56
2022-11-28T04:32:36.943Z,93968.09
2022-11-28T04:35:11.915Z,93971.81
2022-11-28T04:37:41.112Z,93957.81
2022-11-28T04:40:11.818Z,93942.00
2022-11-28T04:42:52.596Z,93945.94
2022-11-28T04:45:34.499Z,93934.34
2022-11-28T04:48:01.930Z,93915.63
2022-11-28T04:50:43.553Z,93922.75
2022-11-28T04:53:21.318Z,93938.75
2022-11-28T04:55:55.665Z,93937.69
2022-11-28T04:58:28.755Z,93942.69
2022-11-28T05:00:57.348Z,93937.41
2022-11-28T05:03:28.294Z,93965.63
2022-11-28T05:05:54.975Z,93952.72
2022-11-28T05:08:21.651Z,93967.22
2022-11-28T05:10:48.660Z,93972.72
2022-11-28T05:13:15.805Z,93958.47
2022-11-28T05:15:42.512Z,93947.13
2022-11-28T05:18:09.401Z,93946.88
2022-11-28T05:20:38.133Z,93950.88
2022-11-28T05:23:05.024Z,94011.28
2022-11-28T05:25:31.625Z,94011.28
2022-11-28T05:27:58.269Z,93985.69
2022-11-28T05:30:24.889Z,93985.41
2022-11-28T05:32:51.553Z,93970.09
2022-11-28T05:35:18.312Z,93972.19
2022-11-28T05:37:44.964Z,93964.28
2022-11-28T05:40:11.927Z,93969.53
2022-11-28T05:42:38.584Z,93938.94
2022-11-28T05:45:05.753Z,93948.34
2022-11-28T05:47:33.270Z,93942.53
2022-11-28T05:50:00.303Z,93945.16
2022-11-28T05:52:29.687Z,93954.88
2022-11-28T05:54:56.438Z,93951.13
2022-11-28T05:57:23.116Z,93947.66
2022-11-28T05:59:49.725Z,93948.69
2022-11-28T06:02:16.436Z,93954.00
2022-11-28T06:04:43.185Z,93943.19
2022-11-28T06:07:09.911Z,93952.63
2022-11-28T06:09:36.562Z,93948.13
2022-11-28T06:12:03.276Z,93954.97
2022-11-28T06:14:29.921Z,93959.16
2022-11-28T06:16:56.757Z,93946.00
2022-11-28T06:19:23.449Z,93938.88
2022-11-28T06:21:50.802Z,93941.75
2022-11-28T06:24:17.798Z,93946.25
2022-11-28T06:26:44.561Z,93943.34
2022-11-28T06:29:11.313Z,93943.78
2022-11-28T06:31:38.012Z,93937.00
2022-11-28T06:34:04.825Z,93944.66
2022-11-28T06:36:31.500Z,93943.88
2022-11-28T06:38:58.195Z,93938.94
2022-11-28T06:41:24.820Z,93933.22
2022-11-28T06:43:51.608Z,93940.91
2022-11-28T06:46:20.632Z,93935.66
2022-11-28T06:48:49.571Z,93937.00
2022-11-28T06:51:17.330Z,93938.28
2022-11-28T06:53:44.719Z,93946.19
2022-11-28T06:56:14.321Z,93945.94
2022-11-28T06:58:42.161Z,93944.09
2022-11-28T07:01:19.872Z,93948.31
2022-11-28T07:03:47.321Z,93941.72
2022-11-28T07:06:16.359Z,93945.94
2022-11-28T07:08:43.307Z,93947.53
2022-11-28T07:11:09.861Z,93945.16
2022-11-28T07:13:36.644Z,93945.16
2022-11-28T07:16:03.921Z,93946.44
2022-11-28T07:18:30.584Z,93934.06
2022-11-28T07:20:57.303Z,93940.38
2022-11-28T07:23:24.177Z,93936.16
2022-11-28T07:25:50.772Z,93938.84
2022-11-28T07:28:20.659Z,93943.53
2022-11-28T07:30:49.709Z,93952.75
2022-11-28T07:33:16.360Z,93957.28
2022-11-28T07:35:42.995Z,93954.63
2022-11-28T07:38:09.626Z,93956.97
2022-11-28T07:40:36.296Z,93953.47
2022-11-28T07:43:02.987Z,93950.28
2022-11-28T07:45:47.391Z,93952.13
2022-11-28T07:48:16.330Z,93944.97
2022-11-28T07:50:42.990Z,93947.94
2022-11-28T07:53:09.697Z,93943.69
2022-11-28T07:55:36.614Z,93944.16
2022-11-28T07:58:04.090Z,93941.19
2022-11-28T08:00:31.451Z,93940.09
2022-11-28T08:02:58.314Z,93937.00
2022-11-28T08:05:24.974Z,93939.03
2022-11-28T08:07:51.718Z,93938.72
2022-11-28T08:10:18.805Z,93933.13
2022-11-28T08:12:45.682Z,93936.38
2022-11-28T08:15:12.374Z,93929.50
2022-11-28T08:17:39.074Z,93933.22
2022-11-28T08:20:06.452Z,93947.63
2022-11-28T08:22:33.132Z,93947.88
2022-11-28T08:24:59.748Z,93948.19
2022-11-28T08:27:26.447Z,93950.56
2022-11-28T08:29:53.992Z,93952.91
2022-11-28T08:32:21.069Z,93957.41
2022-11-28T08:34:47.678Z,93959.72
2022-11-28T08:37:14.406Z,93954.22
2022-11-28T08:39:41.324Z,93948.97
2022-11-28T08:42:08.129Z,93946.66
2022-11-28T08:44:35.000Z,93941.66
2022-11-28T08:47:01.688Z,93951.69
2022-11-28T08:49:28.317Z,93950.03
2022-11-28T08:51:55.050Z,93950.59
2022-11-28T08:54:21.684Z,93960.56
2022-11-28T08:56:48.551Z,93963.38
2022-11-28T08:59:15.225Z,93961.25
2022-11-28T09:01:41.979Z,93961.19
2022-11-28T09:04:08.838Z,93957.31
2022-11-28T09:06:38.837Z,93966.25
2022-11-28T09:09:05.604Z,93953.50
2022-11-28T09:11:32.883Z,93952.97
2022-11-28T09:14:00.152Z,93956.16
2022-11-28T09:16:26.844Z,93968.28
2022-11-28T09:18:54.651Z,93966.94
2022-11-28T09:21:21.837Z,93967.13
2022-11-28T09:23:48.596Z,93967.56
2022-11-28T09:26:18.696Z,93969.59
2022-11-28T09:28:46.406Z,93963.31
2022-11-28T09:31:14.445Z,93965.31
2022-11-28T09:33:41.833Z,93954.47
2022-11-28T09:36:11.350Z,93964.81
2022-11-28T09:38:38.500Z,93965.69
2022-11-28T09:41:30.950Z,93971.94
2022-11-28T09:44:07.240Z,93955.75
2022-11-28T09:46:37.347Z,93969.66
2022-11-28T09:49:18.167Z,93967.72
2022-11-28T09:51:54.378Z,93969.59
2022-11-28T09:54:54.248Z,93974.09
2022-11-28T09:57:39.148Z,93968.78
2022-11-28T10:00:11.227Z,93967.81
2022-11-28T10:02:52.253Z,93967.22
2022-11-28T10:05:36.050Z,93966.66
2022-11-28T10:08:23.224Z,93974.31
2022-11-28T10:11:04.594Z,93969.53
2022-11-28T10:14:07.239Z,93960.81
2022-11-28T10:17:15.887Z,93967.06
2022-11-28T10:20:01.206Z,93963.75
2022-11-28T10:22:42.661Z,93963.19
2022-11-28T10:25:21.565Z,93957.84
2022-11-28T10:27:50.500Z,93954.63
2022-11-28T10:30:26.141Z,93953.56
2022-11-28T10:33:24.192Z,93958.72
2022-11-28T10:35:55.740Z,93953.84
2022-11-28T10:38:27.437Z,93955.59
2022-11-28T10:41:33.177Z,93954.13
2022-11-28T10:44:14.772Z,93955.72
2022-11-28T10:46:55.626Z,93955.72
2022-11-28T10:49:51.679Z,93949.84
2022-11-28T10:52:26.816Z,93948.50
2022-11-28T10:54:56.886Z,93930.84
2022-11-28T10:57:30.366Z,93925.66
2022-11-28T11:00:10.737Z,93926.66
2022-11-28T11:02:48.609Z,93922.06
2022-11-28T11:05:27.192Z,93919.81
2022-11-28T11:07:58.939Z,93930.56
2022-11-28T11:10:28.454Z,93927.03
2022-11-28T11:12:55.469Z,93927.03
2022-11-28T11:15:31.501Z,93931.75
2022-11-28T11:18:04.597Z,93932.81
2022-11-28T11:20:34.024Z,93941.94
2022-11-28T11:23:15.645Z,93937.78
2022-11-28T11:25:58.414Z,93933.06
2022-11-28T11:28:39.852Z,93934.34
2022-11-28T11:31:23.541Z,93938.59
2022-11-28T11:33:53.888Z,93927.00
2022-11-28T11:36:27.336Z,93921.31
2022-11-28T11:39:18.957Z,93932.81
2022-11-28T11:42:06.889Z,93927.94
2022-11-28T11:44:34.622Z,93930.22
2022-11-28T11:47:04.018Z,93926.19
2022-11-28T11:49:33.981Z,93921.28
2022-11-28T11:52:14.522Z,93920.22
2022-11-28T11:54:47.326Z,93923.38
2022-11-28T11:57:32.766Z,93923.97
2022-11-28T12:00:07.025Z,93918.88
2022-11-28T12:02:55.770Z,93924.56
2022-11-28T12:05:52.376Z,93929.88
2022-11-28T12:08:31.715Z,93919.19
2022-11-28T12:11:31.760Z,93914.06
2022-11-28T12:14:06.228Z,93914.19
2022-11-28T12:16:38.977Z,93914.25
2022-11-28T12:19:14.221Z,93913.56
2022-11-28T12:21:40.890Z,93912.25
2022-11-28T12:24:16.470Z,93916.88
2022-11-28T12:26:50.946Z,93904.00
2022-11-28T12:29:54.912Z,93907.50
2022-11-28T12:32:59.038Z,93894.41
2022-11-28T12:35:34.598Z,93897.56
2022-11-28T12:38:44.817Z,93890.88
2022-11-28T12:41:35.821Z,93889.69
2022-11-28T12:44:22.739Z,93895.44
2022-11-28T12:47:13.907Z,93891.22
2022-11-28T12:49:55.310Z,93891.22
2022-11-28T12:52:30.418Z,93884.97
2022-11-28T12:55:05.623Z,93892.63
2022-11-28T12:57:55.824Z,93888.91
2022-11-28T13:00:26.229Z,93887.97
2022-11-28T13:03:14.282Z,93888.66
2022-11-28T13:05:59.177Z,93888.84
2022-11-28T13:08:47.948Z,93880.88
2022-11-28T13:11:50.627Z,93888.06
2022-11-28T13:14:34.425Z,93885.41
2022-11-28T13:17:18.524Z,93884.91
2022-11-28T13:20:07.328Z,93893.66
2022-11-28T13:22:58.350Z,93888.66
2022-11-28T13:25:39.020Z,93886.00
2022-11-28T13:28:13.827Z,93892.56
2022-11-28T13:30:51.402Z,93874.00
2022-11-28T13:33:45.634Z,93884.00
2022-11-28T13:39:33.380Z,93878.63
2022-11-28T13:42:28.776Z,93882.06
2022-11-28T13:45:07.371Z,93887.78
2022-11-28T13:47:36.789Z,93885.84
2022-11-28T13:50:22.430Z,93886.94
2022-11-28T13:53:06.734Z,93886.47
2022-11-28T13:55:39.707Z,93887.34
2022-11-28T13:58:22.243Z,93877.81
2022-11-28T14:01:06.769Z,93884.41
2022-11-28T14:03:36.799Z,93884.88
2022-11-28T14:06:07.329Z,93883.59
2022-11-28T14:08:34.247Z,93885.00
2022-11-28T14:11:27.711Z,93885.72
2022-11-28T14:14:09.391Z,93886.00
2022-11-28T14:16:51.975Z,93889.75
2022-11-28T14:19:50.005Z,93881.88
2022-11-28T14:22:41.654Z,93879.34
2022-11-28T14:25:31.653Z,93884.28
2022-11-28T14:28:03.939Z,93883.31
2022-11-28T14:30:40.899Z,93887.03
2022-11-28T14:33:18.952Z,93882.81
2022-11-28T14:35:50.293Z,93885.97
2022-11-28T14:38:30.101Z,93883.69
2022-11-28T14:41:03.776Z,93890.69
2022-11-28T14:43:35.106Z,93889.53
2022-11-28T14:46:25.687Z,93889.81
2022-11-28T14:48:59.414Z,93892.47
2022-11-28T14:51:48.127Z,93895.78
2022-11-28T14:54:22.280Z,93889.81
2022-11-28T14:56:55.189Z,93893.63
2022-11-28T14:59:37.240Z,93890.28
2022-11-28T15:02:13.077Z,93897.16
2022-11-28T15:05:19.369Z,93890.78
2022-11-28T15:08:21.335Z,93899.34
2022-11-28T15:11:14.612Z,93893.03
2022-11-28T15:13:50.503Z,93893.53
2022-11-28T15:16:20.197Z,93885.47
2022-11-28T15:19:02.326Z,93898.03
2022-11-28T15:21:30.020Z,93886.56
2022-11-28T15:23:57.233Z,93886.88
2022-11-28T15:26:29.774Z,93879.50
2022-11-28T15:29:16.385Z,93879.69
2022-11-28T15:31:43.600Z,93876.16
2022-11-28T15:34:11.068Z,93874.75
2022-11-28T15:36:39.494Z,93875.38
2022-11-28T15:39:24.769Z,93876.81
2022-11-28T15:41:51.710Z,93885.47
2022-11-28T15:44:18.576Z,93879.09
2022-11-28T15:46:45.450Z,93883.53
2022-11-28T15:49:29.189Z,93885.09
2022-11-28T15:51:59.822Z,93883.91
2022-11-28T15:54:38.521Z,93886.97
2022-11-28T15:57:06.546Z,93887.44
2022-11-28T15:59:34.185Z,93885.97
2022-11-28T16:02:29.956Z,93883.31
2022-11-28T16:05:21.031Z,93880.56
2022-11-28T16:07:50.925Z,93892.47
2022-11-28T16:10:22.695Z,93884.72
2022-11-28T16:12:50.747Z,93883.94
2022-11-28T16:15:19.534Z,93885.19
2022-11-28T16:17:46.689Z,93882.16
2022-11-28T16:20:26.516Z,93892.56
2022-11-28T16:22:59.549Z,93891.28
2022-11-28T16:25:27.550Z,93896.06
2022-11-28T16:27:57.352Z,93885.75
2022-11-28T16:30:33.631Z,93887.53
2022-11-28T16:33:01.003Z,93890.19
2022-11-28T16:35:40.400Z,93889.91
2022-11-28T16:38:27.493Z,93882.91
2022-11-28T16:41:01.338Z,93884.09
2022-11-28T16:43:35.870Z,93884.38
2022-11-28T16:46:06.755Z,93885.06
2022-11-28T16:48:46.183Z,93888.78
2022-11-28T16:51:12.867Z,93889.56
2022-11-28T16:53:45.002Z,93877.69
2022-11-28T16:56:31.390Z,93881.91
2022-11-28T16:59:02.773Z,93876.09
2022-11-28T17:01:30.611Z,93877.75
2022-11-28T17:03:57.903Z,93876.69
2022-11-28T17:06:27.368Z,93874.94
2022-11-28T17:08:55.003Z,93878.59
2022-11-28T17:11:26.342Z,93873.50
2022-11-28T17:13:56.174Z,93865.22
2022-11-28T17:16:25.920Z,93865.72
2022-11-28T17:18:53.022Z,93870.16
2022-11-28T17:21:48.613Z,93870.56
2022-11-28T17:24:35.915Z,93868.69
2022-11-28T17:27:03.688Z,93878.31
2022-11-28T17:29:30.686Z,93885.97
2022-11-28T17:31:59.134Z,93886.47
2022-11-28T17:34:29.223Z,93885.88
2022-11-28T17:36:55.887Z,93888.03
2022-11-28T17:39:22.625Z,93894.13
2022-11-28T17:41:49.845Z,93889.19
2022-11-28T17:44:20.122Z,93901.47
2022-11-28T17:46:48.397Z,93899.09
2022-11-28T17:49:15.395Z,93896.16
2022-11-28T17:51:42.970Z,93893.50
2022-11-28T17:54:14.019Z,93890.06
2022-11-28T17:56:40.889Z,93889.56
2022-11-28T17:59:10.183Z,93891.06
2022-11-28T18:01:38.530Z,93892.13
2022-11-28T18:04:05.348Z,93895.09
2022-11-28T18:06:32.683Z,93894.59
2022-11-28T18:09:00.818Z,93894.50
2022-11-28T18:11:28.785Z,93894.13
2022-11-28T18:13:55.688Z,93895.41
2022-11-28T18:16:25.427Z,93900.88
2022-11-28T18:18:52.999Z,93896.88
2022-11-28T18:21:19.773Z,93891.84
2022-11-28T18:23:51.977Z,93892.84
2022-11-28T18:26:21.577Z,93888.81
2022-11-28T18:28:48.469Z,93894.63
2022-11-28T18:31:18.239Z,93883.31
2022-11-28T18:33:46.798Z,93886.09
2022-11-28T18:36:22.967Z,93886.38
2022-11-28T18:38:50.025Z,93887.47
2022-11-28T18:41:17.735Z,93885.19
2022-11-28T18:43:45.365Z,93890.56
2022-11-28T18:46:19.039Z,93879.47
2022-11-28T18:48:47.443Z,93886.94
2022-11-28T18:51:20.022Z,93876.94
2022-11-28T18:53:48.424Z,93881.84
2022-11-28T18:56:15.644Z,93887.63
2022-11-28T18:58:46.418Z,93883.19
2022-11-28T19:01:19.125Z,93882.22
2022-11-28T19:03:53.013Z,93877.81
2022-11-28T19:06:19.967Z,93878.31
2022-11-28T19:08:48.686Z,93889.06
2022-11-28T19:11:17.326Z,93894.88
2022-11-28T19:13:45.849Z,93893.50
2022-11-28T19:16:16.903Z,93895.88
2022-11-28T19:18:44.006Z,93884.56
2022-11-28T19:21:16.312Z,93878.00
2022-11-28T19:23:43.344Z,93878.31
2022-11-28T19:26:12.961Z,93875.81
2022-11-28T19:28:41.176Z,93876.53
2022-11-28T19:31:15.333Z,93879.97
2022-11-28T19:33:43.990Z,93876.81
2022-11-28T19:36:13.028Z,93876.81
2022-11-28T19:38:40.346Z,93884.19
2022-11-28T19:41:12.123Z,93881.53
2022-11-28T19:43:39.361Z,93890.47
2022-11-28T19:46:06.789Z,93887.25
2022-11-28T19:48:36.223Z,93884.81
2022-11-28T19:51:04.107Z,93894.13
2022-11-28T19:53:32.574Z,93894.13
2022-11-28T19:56:11.954Z,93896.97
2022-11-28T19:58:39.878Z,93898.84
2022-11-28T20:01:25.209Z,93891.47
2022-11-28T20:03:53.623Z,93889.69
2022-11-28T20:06:24.229Z,93886.25
2022-11-28T20:08:52.574Z,93884.25
2022-11-28T20:11:28.762Z,93890.13
2022-11-28T20:14:10.900Z,93896.00
2022-11-28T20:16:39.462Z,93893.09
2022-11-28T20:19:06.740Z,93890.34
2022-11-28T20:21:34.637Z,93889.56
2022-11-28T20:24:07.285Z,93893.28
2022-11-28T20:26:40.862Z,93890.63
2022-11-28T20:29:10.701Z,93885.06
2022-11-28T20:31:45.110Z,93892.91
2022-11-28T20:34:13.809Z,93888.13
2022-11-28T20:36:43.700Z,93892.41
2022-11-28T20:39:11.898Z,93901.53
2022-11-28T20:41:38.579Z,93906.41
2022-11-28T20:44:05.509Z,93916.63
2022-11-28T20:46:36.011Z,93911.03
2022-11-28T20:49:06.259Z,93910.88
2022-11-28T20:51:34.475Z,93910.97
2022-11-28T20:54:02.049Z,93902.25
2022-11-28T20:56:30.339Z,93896.44
2022-11-28T20:59:02.117Z,93903.44
2022-11-28T21:01:34.461Z,93890.84
2022-11-28T21:04:02.494Z,93906.75
2022-11-28T21:06:29.861Z,93909.41
2022-11-28T21:08:57.383Z,93905.19
2022-11-28T21:11:55.098Z,93904.59
2022-11-28T21:14:14.235Z,93907.84
2022-11-28T21:16:41.810Z,93909.13
2022-11-28T21:19:09.542Z,93909.53
2022-11-28T21:21:39.011Z,93910.81
2022-11-28T21:24:10.482Z,93904.63
2022-11-28T21:26:42.179Z,93913.56
2022-11-28T21:29:12.467Z,93911.91
2022-11-28T21:31:43.204Z,93914.75
2022-11-28T21:34:16.963Z,93909.16
2022-11-28T21:36:44.636Z,93906.13
2022-11-28T21:39:17.866Z,93912.78
2022-11-28T21:41:44.656Z,93907.59
2022-11-28T21:44:11.666Z,93909.94
2022-11-28T21:46:38.604Z,93907.50
2022-11-28T21:49:05.748Z,93906.28
2022-11-28T21:51:39.585Z,93907.88
2022-11-28T21:54:07.716Z,93903.97
2022-11-28T21:56:34.398Z,93898.66
2022-11-28T21:59:01.122Z,93890.00
2022-11-28T22:01:28.794Z,93906.28
2022-11-28T22:04:02.174Z,93903.75
2022-11-28T22:06:30.154Z,93899.34
2022-11-28T22:08:57.946Z,93899.25
2022-11-28T22:11:25.631Z,93904.44
2022-11-28T22:13:52.925Z,93899.13
2022-11-28T22:16:28.432Z,93902.97
2022-11-28T22:18:59.198Z,93908.28
2022-11-28T22:21:56.074Z,93905.91
2022-11-28T22:24:14.213Z,93899.53
2022-11-28T22:26:41.238Z,93902.69
2022-11-28T22:29:08.347Z,93887.28
2022-11-28T22:31:36.107Z,93901.19
2022-11-28T22:34:03.280Z,93909.28
2022-11-28T22:36:32.656Z,93911.22
2022-11-28T22:39:00.032Z,93902.97
2022-11-28T22:41:29.794Z,93910.06
2022-11-28T22:44:01.191Z,93908.94
2022-11-28T22:46:30.376Z,93906.78
2022-11-28T22:49:00.312Z,93910.22
2022-11-28T22:51:28.382Z,93912.59
2022-11-28T22:54:00.558Z,93903.56
2022-11-28T22:56:29.713Z,93908.84
2022-11-28T22:58:57.918Z,93906.41
2022-11-28T23:01:29.175Z,93917.72
2022-11-28T23:03:58.556Z,93903.75
2022-11-28T23:06:28.410Z,93905.91
2022-11-28T23:08:57.413Z,93909.44
2022-11-28T23:11:29.000Z,93905.72
2022-11-28T23:13:56.504Z,93910.53
2022-11-28T23:16:46.411Z,93901.59
2022-11-28T23:19:16.881Z,93907.88
2022-11-28T23:21:45.826Z,93904.94
2022-11-28T23:24:24.173Z,93886.00
2022-11-28T23:26:52.898Z,93901.78
2022-11-28T23:29:21.378Z,93894.53
2022-11-28T23:31:49.158Z,93901.78
2022-11-28T23:34:16.806Z,93894.81
2022-11-28T23:36:46.070Z,93899.06
2022-11-28T23:39:18.958Z,93897.28
2022-11-28T23:41:45.905Z,93898.25
2022-11-28T23:44:14.009Z,93896.06
2022-11-28T23:46:41.449Z,93898.25
2022-11-28T23:49:08.300Z,93902.28
2022-11-28T23:51:35.715Z,93897.06
2022-11-28T23:54:02.510Z,93899.16
2022-11-28T23:56:31.570Z,93877.31
2022-11-28T23:59:01.414Z,93896.97
